sensor_id;sensor_type;location;lat;lon;timestamp;pressure;altitude;pressure_sealevel;temperature;humidity
59971;BME280;45825;45.434;9.116;2023-02-18T00:00:37;101599.69;;;9.89;69.08
59971;BME280;45825;45.434;9.116;2023-02-18T00:03:02;101597.19;;;9.86;69.05
59971;BME280;45825;45.434;9.116;2023-02-18T00:05:28;101602.53;;;9.83;68.50
59971;BME280;45825;45.434;9.116;2023-02-18T00:07:53;101604.28;;;9.82;68.82
59971;BME280;45825;45.434;9.116;2023-02-18T00:10:19;101596.31;;;9.85;69.34
59971;BME280;45825;45.434;9.116;2023-02-18T00:12:45;101591.91;;;9.86;68.86
59971;BME280;45825;45.434;9.116;2023-02-18T00:15:10;101593.22;;;9.72;69.58
59971;BME280;45825;45.434;9.116;2023-02-18T00:17:35;101594.13;;;9.71;70.37
59971;BME280;45825;45.434;9.116;2023-02-18T00:20:01;101592.53;;;9.66;70.43
59971;BME280;45825;45.434;9.116;2023-02-18T00:22:26;101589.16;;;9.62;71.05
59971;BME280;45825;45.434;9.116;2023-02-18T00:24:52;101589.94;;;9.64;70.89
59971;BME280;45825;45.434;9.116;2023-02-18T00:27:17;101589.06;;;9.63;71.76
59971;BME280;45825;45.434;9.116;2023-02-18T00:29:43;101589.28;;;9.57;71.50
59971;BME280;45825;45.434;9.116;2023-02-18T00:32:08;101587.47;;;9.59;72.46
59971;BME280;45825;45.434;9.116;2023-02-18T00:34:33;101589.03;;;9.65;72.31
59971;BME280;45825;45.434;9.116;2023-02-18T00:36:58;101577.84;;;9.58;72.69
59971;BME280;45825;45.434;9.116;2023-02-18T00:39:25;101582.34;;;9.55;73.11
59971;BME280;45825;45.434;9.116;2023-02-18T00:41:51;101582.09;;;9.62;73.52
59971;BME280;45825;45.434;9.116;2023-02-18T00:44:16;101577.09;;;9.55;73.42
59971;BME280;45825;45.434;9.116;2023-02-18T00:46:41;101579.81;;;9.52;73.64
59971;BME280;45825;45.434;9.116;2023-02-18T00:49:07;101577.06;;;9.56;73.98
59971;BME280;45825;45.434;9.116;2023-02-18T00:51:33;101578.78;;;9.57;74.02
59971;BME280;45825;45.434;9.116;2023-02-18T00:53:59;101568.06;;;9.63;73.35
59971;BME280;45825;45.434;9.116;2023-02-18T00:56:24;101565.88;;;9.78;73.02
59971;BME280;45825;45.434;9.116;2023-02-18T00:58:50;101565.00;;;9.77;72.49
59971;BME280;45825;45.434;9.116;2023-02-18T01:01:16;101564.38;;;9.69;73.16
59971;BME280;45825;45.434;9.116;2023-02-18T01:03:42;101559.84;;;9.74;73.20
59971;BME280;45825;45.434;9.116;2023-02-18T01:06:08;101559.81;;;9.76;72.53
59971;BME280;45825;45.434;9.116;2023-02-18T01:08:34;101563.31;;;9.75;73.00
59971;BME280;45825;45.434;9.116;2023-02-18T01:11:00;101556.41;;;9.72;73.00
59971;BME280;45825;45.434;9.116;2023-02-18T01:13:27;101553.16;;;9.64;73.42
59971;BME280;45825;45.434;9.116;2023-02-18T01:15:53;101555.06;;;9.59;73.17
59971;BME280;45825;45.434;9.116;2023-02-18T01:18:20;101550.91;;;9.52;73.66
59971;BME280;45825;45.434;9.116;2023-02-18T01:20:46;101555.16;;;9.56;74.12
59971;BME280;45825;45.434;9.116;2023-02-18T01:23:12;101549.91;;;9.56;73.91
59971;BME280;45825;45.434;9.116;2023-02-18T01:25:38;101543.94;;;9.50;74.17
59971;BME280;45825;45.434;9.116;2023-02-18T01:28:06;101558.13;;;9.45;74.75
59971;BME280;45825;45.434;9.116;2023-02-18T01:30:32;101548.38;;;9.48;74.12
59971;BME280;45825;45.434;9.116;2023-02-18T01:32:57;101559.75;;;9.49;74.69
59971;BME280;45825;45.434;9.116;2023-02-18T01:35:23;101552.81;;;9.46;73.86
59971;BME280;45825;45.434;9.116;2023-02-18T01:37:49;101549.19;;;9.50;73.68
59971;BME280;45825;45.434;9.116;2023-02-18T01:40:21;101558.03;;;9.48;74.21
59971;BME280;45825;45.434;9.116;2023-02-18T01:42:47;101545.06;;;9.42;74.62
59971;BME280;45825;45.434;9.116;2023-02-18T01:48:14;101544.25;;;9.40;74.44
59971;BME280;45825;45.434;9.116;2023-02-18T01:50:44;101542.28;;;9.46;74.60
59971;BME280;45825;45.434;9.116;2023-02-18T01:53:13;101539.91;;;9.39;75.06
59971;BME280;45825;45.434;9.116;2023-02-18T01:55:40;101536.19;;;9.46;74.97
59971;BME280;45825;45.434;9.116;2023-02-18T01:58:07;101538.16;;;9.39;75.06
59971;BME280;45825;45.434;9.116;2023-02-18T02:00:32;101535.19;;;9.50;74.24
59971;BME280;45825;45.434;9.116;2023-02-18T02:02:58;101542.22;;;9.49;74.55
59971;BME280;45825;45.434;9.116;2023-02-18T02:05:26;101530.19;;;9.41;74.35
59971;BME280;45825;45.434;9.116;2023-02-18T02:07:54;101538.28;;;9.34;74.55
59971;BME280;45825;45.434;9.116;2023-02-18T02:10:19;101540.91;;;9.34;74.79
59971;BME280;45825;45.434;9.116;2023-02-18T02:18:10;101529.59;;;9.32;75.62
59971;BME280;45825;45.434;9.116;2023-02-18T02:34:48;101524.41;;;9.29;74.80
59971;BME280;45825;45.434;9.116;2023-02-18T02:37:24;101522.75;;;9.27;75.31
59971;BME280;45825;45.434;9.116;2023-02-18T02:48:28;101524.41;;;9.29;74.78
59971;BME280;45825;45.434;9.116;2023-02-18T02:51:42;101525.22;;;9.31;74.44
59971;BME280;45825;45.434;9.116;2023-02-18T02:54:21;101523.44;;;9.33;73.93
59971;BME280;45825;45.434;9.116;2023-02-18T02:56:47;101521.84;;;9.28;74.25
59971;BME280;45825;45.434;9.116;2023-02-18T02:59:23;101509.69;;;9.23;74.57
59971;BME280;45825;45.434;9.116;2023-02-18T03:15:26;101500.31;;;9.16;74.19
59971;BME280;45825;45.434;9.116;2023-02-18T03:18:10;101502.97;;;9.15;74.17
59971;BME280;45825;45.434;9.116;2023-02-18T03:20:43;101503.28;;;9.04;74.41
59971;BME280;45825;45.434;9.116;2023-02-18T03:23:10;101500.47;;;9.10;75.02
59971;BME280;45825;45.434;9.116;2023-02-18T03:25:40;101509.16;;;9.12;73.87
59971;BME280;45825;45.434;9.116;2023-02-18T03:28:11;101503.91;;;9.12;74.03
59971;BME280;45825;45.434;9.116;2023-02-18T03:30:50;101500.34;;;9.15;74.36
59971;BME280;45825;45.434;9.116;2023-02-18T03:33:25;101493.63;;;9.04;73.76
59971;BME280;45825;45.434;9.116;2023-02-18T03:35:52;101497.03;;;9.08;73.67
59971;BME280;45825;45.434;9.116;2023-02-18T03:38:26;101501.63;;;9.01;74.62
59971;BME280;45825;45.434;9.116;2023-02-18T03:40:54;101503.09;;;9.10;74.38
59971;BME280;45825;45.434;9.116;2023-02-18T03:43:19;101503.97;;;9.11;73.70
59971;BME280;45825;45.434;9.116;2023-02-18T03:45:44;101509.41;;;9.04;74.34
59971;BME280;45825;45.434;9.116;2023-02-18T03:48:10;101509.41;;;9.04;74.48
59971;BME280;45825;45.434;9.116;2023-02-18T03:50:35;101499.91;;;9.00;74.27
59971;BME280;45825;45.434;9.116;2023-02-18T03:53:00;101503.34;;;9.02;74.41
59971;BME280;45825;45.434;9.116;2023-02-18T03:55:26;101509.50;;;9.01;74.20
59971;BME280;45825;45.434;9.116;2023-02-18T03:57:51;101505.19;;;8.99;74.17
59971;BME280;45825;45.434;9.116;2023-02-18T04:00:16;101498.34;;;8.93;74.71
59971;BME280;45825;45.434;9.116;2023-02-18T04:02:42;101506.13;;;8.96;74.01
59971;BME280;45825;45.434;9.116;2023-02-18T04:05:08;101511.38;;;8.96;74.57
59971;BME280;45825;45.434;9.116;2023-02-18T04:07:33;101506.25;;;8.91;74.60
59971;BME280;45825;45.434;9.116;2023-02-18T04:09:59;101513.28;;;8.91;74.37
59971;BME280;45825;45.434;9.116;2023-02-18T04:12:24;101515.94;;;8.89;74.66
59971;BME280;45825;45.434;9.116;2023-02-18T04:14:49;101514.06;;;8.94;74.36
59971;BME280;45825;45.434;9.116;2023-02-18T04:17:15;101510.91;;;8.82;74.32
59971;BME280;45825;45.434;9.116;2023-02-18T04:19:40;101515.25;;;8.83;74.83
59971;BME280;45825;45.434;9.116;2023-02-18T04:22:06;101520.28;;;8.90;74.57
59971;BME280;45825;45.434;9.116;2023-02-18T04:24:31;101508.94;;;8.90;74.72
59971;BME280;45825;45.434;9.116;2023-02-18T04:26:56;101509.66;;;8.95;74.18
59971;BME280;45825;45.434;9.116;2023-02-18T04:29:22;101508.66;;;8.99;74.03
59971;BME280;45825;45.434;9.116;2023-02-18T04:31:48;101508.63;;;9.01;73.83
59971;BME280;45825;45.434;9.116;2023-02-18T04:34:13;101504.19;;;9.03;73.65
59971;BME280;45825;45.434;9.116;2023-02-18T04:36:38;101512.06;;;9.03;73.86
59971;BME280;45825;45.434;9.116;2023-02-18T04:39:04;101507.84;;;8.97;73.78
59971;BME280;45825;45.434;9.116;2023-02-18T04:41:29;101512.38;;;8.92;73.49
59971;BME280;45825;45.434;9.116;2023-02-18T04:43:54;101515.97;;;8.88;73.73
59971;BME280;45825;45.434;9.116;2023-02-18T04:46:20;101516.69;;;8.94;74.01
59971;BME280;45825;45.434;9.116;2023-02-18T04:48:45;101511.22;;;9.02;73.57
59971;BME280;45825;45.434;9.116;2023-02-18T04:51:11;101522.66;;;9.00;73.15
59971;BME280;45825;45.434;9.116;2023-02-18T04:53:36;101511.44;;;8.94;73.50
59971;BME280;45825;45.434;9.116;2023-02-18T04:56:01;101516.31;;;8.75;74.27
59971;BME280;45825;45.434;9.116;2023-02-18T04:58:27;101518.69;;;8.85;74.04
59971;BME280;45825;45.434;9.116;2023-02-18T05:00:52;101519.03;;;8.72;74.72
59971;BME280;45825;45.434;9.116;2023-02-18T05:03:18;101523.69;;;8.62;75.39
59971;BME280;45825;45.434;9.116;2023-02-18T05:05:44;101523.88;;;8.55;76.00
59971;BME280;45825;45.434;9.116;2023-02-18T05:08:10;101525.28;;;8.68;75.33
59971;BME280;45825;45.434;9.116;2023-02-18T05:10:37;101524.13;;;8.78;74.57
59971;BME280;45825;45.434;9.116;2023-02-18T05:13:02;101532.03;;;8.44;76.38
59971;BME280;45825;45.434;9.116;2023-02-18T05:15:28;101533.88;;;8.38;75.94
59971;BME280;45825;45.434;9.116;2023-02-18T05:17:53;101530.56;;;8.32;76.59
59971;BME280;45825;45.434;9.116;2023-02-18T05:20:18;101531.47;;;8.31;76.37
59971;BME280;45825;45.434;9.116;2023-02-18T05:22:44;101522.88;;;8.25;76.63
59971;BME280;45825;45.434;9.116;2023-02-18T05:25:09;101527.34;;;8.20;76.77
59971;BME280;45825;45.434;9.116;2023-02-18T05:27:34;101535.41;;;8.13;77.45
59971;BME280;45825;45.434;9.116;2023-02-18T05:30:00;101530.41;;;8.03;78.00
59971;BME280;45825;45.434;9.116;2023-02-18T05:32:25;101529.59;;;7.63;80.13
59971;BME280;45825;45.434;9.116;2023-02-18T05:34:50;101532.81;;;7.75;80.53
59971;BME280;45825;45.434;9.116;2023-02-18T05:37:15;101531.69;;;7.47;82.13
59971;BME280;45825;45.434;9.116;2023-02-18T05:39:43;101531.91;;;7.38;83.29
59971;BME280;45825;45.434;9.116;2023-02-18T05:42:09;101535.41;;;7.37;84.58
59971;BME280;45825;45.434;9.116;2023-02-18T05:44:34;101541.91;;;7.58;83.42
59971;BME280;45825;45.434;9.116;2023-02-18T05:47:03;101540.69;;;7.75;82.16
59971;BME280;45825;45.434;9.116;2023-02-18T05:49:30;101544.47;;;7.22;85.46
59971;BME280;45825;45.434;9.116;2023-02-18T05:51:56;101529.44;;;6.89;87.77
59971;BME280;45825;45.434;9.116;2023-02-18T05:54:22;101539.47;;;7.09;87.73
59971;BME280;45825;45.434;9.116;2023-02-18T05:56:48;101540.78;;;7.31;86.88
59971;BME280;45825;45.434;9.116;2023-02-18T05:59:13;101543.94;;;7.04;89.70
59971;BME280;45825;45.434;9.116;2023-02-18T06:01:39;101549.03;;;7.12;89.28
59971;BME280;45825;45.434;9.116;2023-02-18T06:04:05;101543.47;;;7.26;88.21
59971;BME280;45825;45.434;9.116;2023-02-18T06:06:30;101550.16;;;7.41;86.99
59971;BME280;45825;45.434;9.116;2023-02-18T06:08:55;101553.53;;;7.48;86.17
59971;BME280;45825;45.434;9.116;2023-02-18T06:11:21;101562.75;;;7.23;87.39
59971;BME280;45825;45.434;9.116;2023-02-18T06:13:46;101561.69;;;7.32;87.17
59971;BME280;45825;45.434;9.116;2023-02-18T06:16:11;101557.25;;;7.36;87.01
59971;BME280;45825;45.434;9.116;2023-02-18T06:18:37;101562.31;;;7.44;87.11
59971;BME280;45825;45.434;9.116;2023-02-18T06:21:02;101564.75;;;7.53;86.49
59971;BME280;45825;45.434;9.116;2023-02-18T06:23:27;101565.34;;;7.66;85.60
59971;BME280;45825;45.434;9.116;2023-02-18T06:25:53;101555.03;;;7.58;85.00
59971;BME280;45825;45.434;9.116;2023-02-18T06:28:18;101570.50;;;7.71;84.63
59971;BME280;45825;45.434;9.116;2023-02-18T06:30:44;101571.13;;;7.80;84.18
59971;BME280;45825;45.434;9.116;2023-02-18T06:33:10;101577.75;;;7.58;86.10
59971;BME280;45825;45.434;9.116;2023-02-18T06:35:35;101568.47;;;7.43;87.75
59971;BME280;45825;45.434;9.116;2023-02-18T06:38:01;101568.56;;;7.38;89.60
59971;BME280;45825;45.434;9.116;2023-02-18T06:40:26;101569.97;;;7.54;88.18
59971;BME280;45825;45.434;9.116;2023-02-18T06:42:52;101576.06;;;7.55;88.51
59971;BME280;45825;45.434;9.116;2023-02-18T06:45:18;101573.16;;;7.26;90.89
59971;BME280;45825;45.434;9.116;2023-02-18T06:47:43;101579.66;;;7.49;89.59
59971;BME280;45825;45.434;9.116;2023-02-18T06:50:09;101577.47;;;7.70;88.00
59971;BME280;45825;45.434;9.116;2023-02-18T06:52:34;101591.28;;;7.78;87.25
59971;BME280;45825;45.434;9.116;2023-02-18T06:55:05;101598.88;;;7.89;86.56
59971;BME280;45825;45.434;9.116;2023-02-18T06:57:30;101597.22;;;7.85;86.53
59971;BME280;45825;45.434;9.116;2023-02-18T06:59:55;101591.28;;;7.78;86.80
59971;BME280;45825;45.434;9.116;2023-02-18T07:02:21;101599.78;;;7.88;86.47
59971;BME280;45825;45.434;9.116;2023-02-18T07:04:46;101605.78;;;7.93;86.40
59971;BME280;45825;45.434;9.116;2023-02-18T07:07:11;101612.53;;;8.04;85.33
59971;BME280;45825;45.434;9.116;2023-02-18T07:09:37;101618.31;;;7.79;86.91
59971;BME280;45825;45.434;9.116;2023-02-18T07:12:02;101610.84;;;7.62;88.73
59971;BME280;45825;45.434;9.116;2023-02-18T07:14:27;101614.63;;;7.47;89.41
59971;BME280;45825;45.434;9.116;2023-02-18T07:16:53;101622.31;;;7.56;88.98
59971;BME280;45825;45.434;9.116;2023-02-18T07:19:18;101608.66;;;7.40;89.84
59971;BME280;45825;45.434;9.116;2023-02-18T07:21:43;101598.81;;;7.51;89.23
59971;BME280;45825;45.434;9.116;2023-02-18T07:24:09;101603.56;;;7.76;88.41
59971;BME280;45825;45.434;9.116;2023-02-18T07:26:34;101603.28;;;7.87;86.96
59971;BME280;45825;45.434;9.116;2023-02-18T07:29:00;101598.03;;;7.89;86.71
59971;BME280;45825;45.434;9.116;2023-02-18T07:31:26;101612.09;;;7.85;87.37
59971;BME280;45825;45.434;9.116;2023-02-18T07:33:51;101610.34;;;7.85;87.24
59971;BME280;45825;45.434;9.116;2023-02-18T07:36:16;101595.16;;;8.00;86.86
59971;BME280;45825;45.434;9.116;2023-02-18T07:38:42;101607.13;;;8.10;86.33
59971;BME280;45825;45.434;9.116;2023-02-18T07:41:20;101602.69;;;8.14;85.85
59971;BME280;45825;45.434;9.116;2023-02-18T07:43:46;101597.44;;;8.14;85.43
59971;BME280;45825;45.434;9.116;2023-02-18T07:46:11;101596.13;;;8.32;85.62
59971;BME280;45825;45.434;9.116;2023-02-18T07:48:36;101599.75;;;8.28;84.71
59971;BME280;45825;45.434;9.116;2023-02-18T07:51:06;101584.84;;;8.28;85.50
59971;BME280;45825;45.434;9.116;2023-02-18T07:53:32;101583.25;;;8.22;85.57
59971;BME280;45825;45.434;9.116;2023-02-18T07:55:58;101582.94;;;7.99;86.78
59971;BME280;45825;45.434;9.116;2023-02-18T07:58:32;101585.56;;;7.99;87.44
59971;BME280;45825;45.434;9.116;2023-02-18T08:00:58;101582.41;;;7.84;88.34
59971;BME280;45825;45.434;9.116;2023-02-18T08:03:26;101582.03;;;8.00;88.10
59971;BME280;45825;45.434;9.116;2023-02-18T08:05:52;101586.06;;;8.15;87.02
59971;BME280;45825;45.434;9.116;2023-02-18T08:08:20;101586.34;;;8.38;86.05
59971;BME280;45825;45.434;9.116;2023-02-18T08:10:47;101588.53;;;8.57;84.32
59971;BME280;45825;45.434;9.116;2023-02-18T08:13:13;101599.22;;;8.48;83.98
59971;BME280;45825;45.434;9.116;2023-02-18T08:15:39;101598.41;;;8.46;84.74
59971;BME280;45825;45.434;9.116;2023-02-18T08:18:06;101599.81;;;8.61;84.09
59971;BME280;45825;45.434;9.116;2023-02-18T08:20:35;101593.56;;;8.65;83.45
59971;BME280;45825;45.434;9.116;2023-02-18T08:23:02;101599.63;;;8.69;82.91
59971;BME280;45825;45.434;9.116;2023-02-18T08:25:27;101599.41;;;8.76;82.66
59971;BME280;45825;45.434;9.116;2023-02-18T08:27:52;101595.13;;;8.74;82.42
59971;BME280;45825;45.434;9.116;2023-02-18T08:30:18;101599.78;;;8.96;82.40
59971;BME280;45825;45.434;9.116;2023-02-18T08:32:43;101596.06;;;9.03;81.61
59971;BME280;45825;45.434;9.116;2023-02-18T08:35:10;101604.50;;;9.14;80.19
59971;BME280;45825;45.434;9.116;2023-02-18T08:37:35;101606.03;;;9.23;79.44
59971;BME280;45825;45.434;9.116;2023-02-18T08:40:02;101605.06;;;9.26;79.54
59971;BME280;45825;45.434;9.116;2023-02-18T08:42:27;101610.44;;;9.21;79.34
59971;BME280;45825;45.434;9.116;2023-02-18T08:44:53;101615.63;;;9.24;79.40
59971;BME280;45825;45.434;9.116;2023-02-18T08:47:18;101620.66;;;9.32;79.56
59971;BME280;45825;45.434;9.116;2023-02-18T08:49:45;101617.22;;;9.30;78.76
59971;BME280;45825;45.434;9.116;2023-02-18T08:52:10;101618.28;;;9.22;79.28
59971;BME280;45825;45.434;9.116;2023-02-18T08:54:35;101616.31;;;9.31;79.81
59971;BME280;45825;45.434;9.116;2023-02-18T08:57:01;101616.00;;;9.42;79.58
59971;BME280;45825;45.434;9.116;2023-02-18T08:59:26;101611.44;;;9.48;79.38
59971;BME280;45825;45.434;9.116;2023-02-18T09:01:53;101613.16;;;9.49;78.94
59971;BME280;45825;45.434;9.116;2023-02-18T09:04:18;101606.75;;;9.58;78.88
59971;BME280;45825;45.434;9.116;2023-02-18T09:06:46;101602.84;;;9.72;78.16
59971;BME280;45825;45.434;9.116;2023-02-18T09:09:12;101599.28;;;9.74;78.07
59971;BME280;45825;45.434;9.116;2023-02-18T09:11:37;101605.75;;;9.91;77.29
59971;BME280;45825;45.434;9.116;2023-02-18T09:14:02;101609.75;;;10.04;76.84
59971;BME280;45825;45.434;9.116;2023-02-18T09:16:28;101606.84;;;10.14;75.79
59971;BME280;45825;45.434;9.116;2023-02-18T09:18:54;101611.03;;;10.19;75.65
59971;BME280;45825;45.434;9.116;2023-02-18T09:21:20;101602.13;;;10.24;75.69
59971;BME280;45825;45.434;9.116;2023-02-18T09:23:47;101596.75;;;10.27;76.35
59971;BME280;45825;45.434;9.116;2023-02-18T09:26:14;101597.47;;;10.32;75.25
59971;BME280;45825;45.434;9.116;2023-02-18T09:28:40;101591.94;;;10.41;74.01
59971;BME280;45825;45.434;9.116;2023-02-18T09:31:09;101598.50;;;10.55;73.48
59971;BME280;45825;45.434;9.116;2023-02-18T09:33:42;101594.78;;;10.60;72.47
59971;BME280;45825;45.434;9.116;2023-02-18T09:36:07;101589.66;;;10.57;71.68
59971;BME280;45825;45.434;9.116;2023-02-18T09:38:33;101587.50;;;10.69;72.14
59971;BME280;45825;45.434;9.116;2023-02-18T09:41:00;101592.59;;;10.73;71.58
59971;BME280;45825;45.434;9.116;2023-02-18T09:43:30;101585.13;;;10.86;71.76
59971;BME280;45825;45.434;9.116;2023-02-18T09:45:58;101577.03;;;10.91;71.19
59971;BME280;45825;45.434;9.116;2023-02-18T09:48:28;101583.03;;;10.96;71.72
59971;BME280;45825;45.434;9.116;2023-02-18T09:50:55;101588.34;;;11.18;71.04
59971;BME280;45825;45.434;9.116;2023-02-18T09:53:22;101581.81;;;11.29;70.34
59971;BME280;45825;45.434;9.116;2023-02-18T09:55:50;101583.19;;;11.39;69.71
59971;BME280;45825;45.434;9.116;2023-02-18T09:58:22;101578.63;;;11.44;69.70
59971;BME280;45825;45.434;9.116;2023-02-18T10:03:38;101568.03;;;11.68;68.78
59971;BME280;45825;45.434;9.116;2023-02-18T10:06:09;101569.41;;;11.79;68.37
59971;BME280;45825;45.434;9.116;2023-02-18T10:08:37;101571.06;;;12.04;67.98
59971;BME280;45825;45.434;9.116;2023-02-18T10:11:11;101563.00;;;12.29;66.85
59971;BME280;45825;45.434;9.116;2023-02-18T10:13:40;101560.63;;;12.43;65.73
59971;BME280;45825;45.434;9.116;2023-02-18T10:16:05;101564.19;;;12.63;65.49
59971;BME280;45825;45.434;9.116;2023-02-18T10:18:41;101560.53;;;12.87;64.56
59971;BME280;45825;45.434;9.116;2023-02-18T10:21:13;101561.50;;;13.05;64.01
59971;BME280;45825;45.434;9.116;2023-02-18T10:23:42;101550.28;;;13.38;63.34
59971;BME280;45825;45.434;9.116;2023-02-18T10:26:14;101551.88;;;13.61;62.72
59971;BME280;45825;45.434;9.116;2023-02-18T10:28:40;101548.00;;;13.68;62.16
59971;BME280;45825;45.434;9.116;2023-02-18T10:31:09;101540.50;;;13.96;61.07
59971;BME280;45825;45.434;9.116;2023-02-18T10:33:46;101546.19;;;14.23;60.31
59971;BME280;45825;45.434;9.116;2023-02-18T10:44:13;101535.16;;;15.66;56.07
59971;BME280;45825;45.434;9.116;2023-02-18T10:47:14;101533.41;;;16.28;53.97
59971;BME280;45825;45.434;9.116;2023-02-18T10:50:08;101524.56;;;17.01;52.04
59971;BME280;45825;45.434;9.116;2023-02-18T10:52:39;101524.09;;;16.20;52.74
59971;BME280;45825;45.434;9.116;2023-02-18T10:55:15;101511.22;;;17.98;49.59
59971;BME280;45825;45.434;9.116;2023-02-18T10:57:54;101509.34;;;19.66;45.70
59971;BME280;45825;45.434;9.116;2023-02-18T11:00:23;101504.34;;;21.47;41.57
59971;BME280;45825;45.434;9.116;2023-02-18T11:05:34;101504.63;;;22.71;38.46
59971;BME280;45825;45.434;9.116;2023-02-18T11:08:00;101487.00;;;23.98;35.58
59971;BME280;45825;45.434;9.116;2023-02-18T11:10:41;101484.16;;;24.20;34.26
59971;BME280;45825;45.434;9.116;2023-02-18T11:13:10;101484.53;;;24.73;33.63
59971;BME280;45825;45.434;9.116;2023-02-18T11:15:37;101477.66;;;24.98;33.23
59971;BME280;45825;45.434;9.116;2023-02-18T11:18:36;101481.91;;;23.95;33.65
59971;BME280;45825;45.434;9.116;2023-02-18T11:21:08;101473.59;;;23.39;34.48
59971;BME280;45825;45.434;9.116;2023-02-18T11:23:48;101469.69;;;24.78;33.13
59971;BME280;45825;45.434;9.116;2023-02-18T11:26:14;101457.38;;;26.29;30.62
59971;BME280;45825;45.434;9.116;2023-02-18T11:28:45;101457.19;;;26.66;30.14
59971;BME280;45825;45.434;9.116;2023-02-18T11:31:23;101444.75;;;27.82;29.03
59971;BME280;45825;45.434;9.116;2023-02-18T11:33:52;101437.31;;;26.75;29.53
59971;BME280;45825;45.434;9.116;2023-02-18T11:36:30;101437.75;;;26.88;29.72
59971;BME280;45825;45.434;9.116;2023-02-18T11:38:58;101430.03;;;27.93;28.25
59971;BME280;45825;45.434;9.116;2023-02-18T11:41:32;101428.38;;;27.75;27.60
59971;BME280;45825;45.434;9.116;2023-02-18T11:43:58;101427.47;;;28.56;27.02
59971;BME280;45825;45.434;9.116;2023-02-18T11:46:26;101413.16;;;27.33;28.55
59971;BME280;45825;45.434;9.116;2023-02-18T11:48:52;101409.94;;;27.29;28.67
59971;BME280;45825;45.434;9.116;2023-02-18T11:51:33;101410.91;;;28.91;26.71
59971;BME280;45825;45.434;9.116;2023-02-18T11:54:04;101394.22;;;29.49;25.92
59971;BME280;45825;45.434;9.116;2023-02-18T11:56:33;101389.09;;;29.69;24.91
59971;BME280;45825;45.434;9.116;2023-02-18T11:59:01;101392.94;;;29.37;25.15
59971;BME280;45825;45.434;9.116;2023-02-18T12:01:42;101385.69;;;30.06;24.54
59971;BME280;45825;45.434;9.116;2023-02-18T12:04:18;101386.03;;;30.33;24.84
59971;BME280;45825;45.434;9.116;2023-02-18T12:09:36;101370.56;;;30.85;23.75
59971;BME280;45825;45.434;9.116;2023-02-18T12:12:12;101366.88;;;30.71;23.54
59971;BME280;45825;45.434;9.116;2023-02-18T12:14:39;101361.47;;;31.78;23.09
59971;BME280;45825;45.434;9.116;2023-02-18T12:30:36;101326.50;;;32.11;21.97
59971;BME280;45825;45.434;9.116;2023-02-18T12:36:15;101315.88;;;32.98;20.76
59971;BME280;45825;45.434;9.116;2023-02-18T12:38:54;101313.69;;;30.62;23.22
59971;BME280;45825;45.434;9.116;2023-02-18T12:44:30;101304.16;;;28.85;25.41
59971;BME280;45825;45.434;9.116;2023-02-18T12:47:05;101304.56;;;26.71;27.87
59971;BME280;45825;45.434;9.116;2023-02-18T13:03:04;101267.88;;;30.52;23.24
59971;BME280;45825;45.434;9.116;2023-02-18T13:08:24;101260.97;;;28.61;25.59
59971;BME280;45825;45.434;9.116;2023-02-18T13:13:53;101248.13;;;27.68;27.15
59971;BME280;45825;45.434;9.116;2023-02-18T13:16:23;101238.22;;;29.32;25.16
59971;BME280;45825;45.434;9.116;2023-02-18T13:19:51;101231.03;;;30.43;23.86
59971;BME280;45825;45.434;9.116;2023-02-18T13:22:00;101222.91;;;31.21;22.93
59971;BME280;45825;45.434;9.116;2023-02-18T13:24:39;101224.00;;;30.27;23.78
59971;BME280;45825;45.434;9.116;2023-02-18T13:27:41;101226.66;;;30.42;23.83
59971;BME280;45825;45.434;9.116;2023-02-18T13:39:13;101207.28;;;29.56;24.87
59971;BME280;45825;45.434;9.116;2023-02-18T13:41:48;101207.59;;;29.46;24.90
59971;BME280;45825;45.434;9.116;2023-02-18T13:46:49;101195.47;;;30.59;23.55
59971;BME280;45825;45.434;9.116;2023-02-18T13:49:20;101198.97;;;30.75;23.33
59971;BME280;45825;45.434;9.116;2023-02-18T13:51:48;101198.28;;;31.23;22.95
59971;BME280;45825;45.434;9.116;2023-02-18T13:59:27;101185.69;;;31.57;22.64
59971;BME280;45825;45.434;9.116;2023-02-18T14:02:07;101184.81;;;31.99;22.41
59971;BME280;45825;45.434;9.116;2023-02-18T14:04:54;101168.44;;;31.36;22.80
59971;BME280;45825;45.434;9.116;2023-02-18T14:13:01;101169.16;;;30.60;23.60
59971;BME280;45825;45.434;9.116;2023-02-18T14:20:29;101164.47;;;29.36;24.44
59971;BME280;45825;45.434;9.116;2023-02-18T14:22:56;101157.28;;;29.95;24.59
59971;BME280;45825;45.434;9.116;2023-02-18T14:25:36;101159.34;;;29.93;24.54
59971;BME280;45825;45.434;9.116;2023-02-18T14:33:47;101157.66;;;26.74;28.08
59971;BME280;45825;45.434;9.116;2023-02-18T14:44:52;101150.50;;;27.71;26.88
59971;BME280;45825;45.434;9.116;2023-02-18T14:47:28;101141.75;;;28.39;26.00
59971;BME280;45825;45.434;9.116;2023-02-18T14:50:00;101141.53;;;28.02;26.32
59971;BME280;45825;45.434;9.116;2023-02-18T14:54:53;101152.75;;;23.15;33.10
59971;BME280;45825;45.434;9.116;2023-02-18T14:57:21;101154.34;;;20.21;38.27
59971;BME280;45825;45.434;9.116;2023-02-18T14:59:57;101149.91;;;20.10;38.76
59971;BME280;45825;45.434;9.116;2023-02-18T15:02:26;101152.44;;;18.87;41.63
59971;BME280;45825;45.434;9.116;2023-02-18T15:04:52;101146.22;;;18.75;42.25
59971;BME280;45825;45.434;9.116;2023-02-18T15:07:20;101153.66;;;18.94;42.64
59971;BME280;45825;45.434;9.116;2023-02-18T15:09:52;101153.44;;;18.97;42.54
59971;BME280;45825;45.434;9.116;2023-02-18T15:12:20;101142.19;;;18.33;43.99
59971;BME280;45825;45.434;9.116;2023-02-18T15:14:47;101150.44;;;17.93;44.40
59971;BME280;45825;45.434;9.116;2023-02-18T15:17:24;101155.75;;;17.55;45.53
59971;BME280;45825;45.434;9.116;2023-02-18T15:19:54;101158.19;;;17.58;45.87
59971;BME280;45825;45.434;9.116;2023-02-18T15:22:22;101150.53;;;17.54;46.44
59971;BME280;45825;45.434;9.116;2023-02-18T15:24:49;101157.69;;;17.53;46.24
59971;BME280;45825;45.434;9.116;2023-02-18T15:27:38;101151.44;;;17.15;47.02